Time;durP1;ratioP1;P1;durP2;ratioP2;P2;SDS_P1;SDS_P2;PMS_P1;PMS_P2;Temp;Humidity;BMP_temperature;BMP_pressure;BME280_temperature;BME280_humidity;BME280_pressure;Samples;Min_cycle;Max_cycle;Signal;HPM_P1;HPM_P2
2022/04/30 00:00:11;;;;;;;6.00;4.70;;;4.50;99.90;;;;;;5012222;28;20030;-77
2022/04/30 00:02:37;;;;;;;8.20;4.80;;;4.50;99.90;;;;;;5000372;28;20034;-76
2022/04/30 00:05:03;;;;;;;8.45;5.07;;;4.50;99.90;;;;;;4992562;28;20037;-77
2022/04/30 00:07:28;;;;;;;6.30;5.05;;;4.50;99.90;;;;;;4992618;28;20026;-77
2022/04/30 00:09:54;;;;;;;9.50;5.30;;;4.50;99.90;;;;;;4976732;28;20028;-77
2022/04/30 00:12:19;;;;;;;9.55;4.90;;;4.40;99.90;;;;;;4993440;28;20038;-77
2022/04/30 00:14:49;;;;;;;8.55;4.80;;;4.40;99.90;;;;;;4997021;28;20063;-77
2022/04/30 00:17:14;;;;;;;6.55;4.90;;;4.40;99.90;;;;;;5011356;28;20026;-77
2022/04/30 00:19:40;;;;;;;7.65;5.03;;;4.40;99.90;;;;;;5005839;28;20646;-77
2022/04/30 00:22:06;;;;;;;9.20;5.32;;;4.40;99.90;;;;;;5003248;28;20034;-76
2022/04/30 00:24:31;;;;;;;12.15;6.10;;;4.30;99.90;;;;;;4991786;28;20101;-77
2022/04/30 00:26:59;;;;;;;7.47;5.05;;;4.30;99.90;;;;;;4992024;28;20034;-77
2022/04/30 00:29:26;;;;;;;12.25;5.97;;;4.30;99.90;;;;;;4981809;28;20025;-77
2022/04/30 00:31:54;;;;;;;7.82;5.53;;;4.30;99.90;;;;;;5009341;28;20021;-77
2022/04/30 00:34:20;;;;;;;6.95;5.60;;;4.30;99.90;;;;;;5011562;28;20033;-76
2022/04/30 00:36:45;;;;;;;8.23;5.00;;;4.20;99.90;;;;;;4979491;28;20409;-77
2022/04/30 01:09:31;;;;;;;10.65;5.63;;;3.90;99.90;;;;;;4972126;28;20029;-77
2022/04/30 01:12:06;;;;;;;9.02;6.15;;;3.90;99.90;;;;;;4980564;28;20052;-77
2022/04/30 01:14:32;;;;;;;13.18;5.95;;;3.90;99.90;;;;;;4993836;28;20034;-76
2022/04/30 01:17:08;;;;;;;9.57;5.78;;;3.90;99.90;;;;;;4993570;28;20026;-76
2022/04/30 01:19:37;;;;;;;11.27;6.22;;;3.80;99.90;;;;;;5011114;28;20022;-76
2022/04/30 01:22:13;;;;;;;7.40;6.13;;;3.80;99.90;;;;;;5000734;28;20494;-76
2022/04/30 01:24:40;;;;;;;10.35;6.55;;;3.70;99.90;;;;;;4974366;28;20125;-77
2022/04/30 01:27:07;;;;;;;12.18;5.88;;;3.70;99.90;;;;;;5005486;28;20115;-76
2022/04/30 01:29:33;;;;;;;10.23;6.47;;;3.70;99.90;;;;;;5011275;28;20057;-77
2022/04/30 01:37:36;;;;;;;9.85;5.50;;;3.70;99.90;;;;;;5010895;28;20176;-77
2022/04/30 01:40:07;;;;;;;8.10;5.28;;;3.70;99.90;;;;;;4954013;28;20114;-77
2022/04/30 01:42:47;;;;;;;9.05;4.78;;;3.70;99.90;;;;;;4971156;28;20019;-77
2022/04/30 01:45:15;;;;;;;5.97;4.82;;;3.60;99.90;;;;;;5010234;28;20049;-77
2022/04/30 01:47:45;;;;;;;8.70;5.75;;;3.60;99.90;;;;;;4992595;28;20044;-77
2022/04/30 01:50:12;;;;;;;9.45;5.88;;;3.60;99.90;;;;;;5009485;28;20021;-76
2022/04/30 01:52:38;;;;;;;7.25;4.97;;;3.60;99.90;;;;;;4993205;28;20018;-77
2022/04/30 01:55:04;;;;;;;9.60;5.13;;;3.60;99.90;;;;;;4973203;28;20036;-76
2022/04/30 01:57:30;;;;;;;6.78;5.10;;;3.60;99.90;;;;;;5004727;28;20026;-76
2022/04/30 01:59:57;;;;;;;7.95;5.22;;;3.60;99.90;;;;;;4996698;28;20018;-76
2022/04/30 02:02:25;;;;;;;7.15;5.38;;;3.60;99.90;;;;;;4992221;28;20022;-76
2022/04/30 02:04:55;;;;;;;10.63;5.72;;;3.60;99.90;;;;;;4990865;28;20073;-76
2022/04/30 02:07:22;;;;;;;11.43;5.88;;;3.50;99.90;;;;;;4990772;28;20089;-76
2022/04/30 02:09:51;;;;;;;9.90;5.60;;;3.50;99.90;;;;;;4974805;28;20022;-76
2022/04/30 02:14:52;;;;;;;7.20;5.00;;;3.50;99.90;;;;;;5008002;28;20046;-54
2022/04/30 02:17:19;;;;;;;7.13;5.00;;;3.40;99.90;;;;;;5009746;28;20086;-54
2022/04/30 02:22:31;;;;;;;6.40;4.70;;;3.30;99.90;;;;;;5009294;28;20460;-53
2022/04/30 02:24:58;;;;;;;6.90;4.47;;;3.30;99.90;;;;;;4990688;28;20041;-51
2022/04/30 02:27:25;;;;;;;10.52;5.25;;;3.30;99.90;;;;;;4989945;28;20383;-53
2022/04/30 02:29:50;;;;;;;5.65;4.65;;;3.30;99.90;;;;;;4991146;28;20026;-52
2022/04/30 02:32:17;;;;;;;9.18;4.80;;;3.30;99.90;;;;;;4989772;28;20224;-52
2022/04/30 02:34:42;;;;;;;6.35;4.47;;;3.20;99.90;;;;;;4990164;28;20018;-55
2022/04/30 02:37:14;;;;;;;7.72;5.07;;;3.20;99.90;;;;;;4991155;28;20025;-52
2022/04/30 02:39:42;;;;;;;7.68;5.22;;;3.20;99.90;;;;;;4999846;28;20030;-50
2022/04/30 02:42:08;;;;;;;7.18;4.97;;;3.20;99.90;;;;;;4989645;28;20034;-53
2022/04/30 02:44:34;;;;;;;10.25;4.75;;;3.20;99.90;;;;;;4989703;28;20398;-54
2022/04/30 02:47:00;;;;;;;5.20;4.38;;;3.20;99.90;;;;;;4998831;28;20038;-53
2022/04/30 02:49:25;;;;;;;8.95;5.00;;;3.20;99.90;;;;;;4972392;28;20447;-50
2022/04/30 02:51:51;;;;;;;6.43;4.88;;;3.20;99.90;;;;;;4989295;28;20034;-52
2022/04/30 02:54:16;;;;;;;10.35;5.63;;;3.20;99.90;;;;;;4991529;28;20101;-53
2022/04/30 02:56:42;;;;;;;5.75;4.13;;;3.10;99.90;;;;;;4991787;28;20053;-52
2022/04/30 03:02:06;;;;;;;8.82;4.95;;;3.10;99.90;;;;;;4975497;28;20045;-52
2022/04/30 03:04:31;;;;;;;6.47;5.20;;;3.10;99.90;;;;;;5008410;28;20030;-52
2022/04/30 03:06:57;;;;;;;7.03;5.18;;;3.10;99.90;;;;;;4993427;28;20399;-58
2022/04/30 03:09:22;;;;;;;10.38;5.40;;;3.10;99.90;;;;;;4999149;28;20476;-55
2022/04/30 03:11:48;;;;;;;9.90;5.03;;;3.10;99.90;;;;;;5012192;28;20113;-55
2022/04/30 03:14:15;;;;;;;9.40;4.88;;;3.10;99.90;;;;;;5010704;28;20053;-53
2022/04/30 03:22:10;;;;;;;7.15;5.10;;;3.00;99.90;;;;;;5007820;28;20040;-56
2022/04/30 03:24:35;;;;;;;7.75;5.20;;;3.00;99.90;;;;;;5009705;28;20025;-53
2022/04/30 03:27:01;;;;;;;8.07;4.88;;;3.00;99.90;;;;;;5012415;28;20032;-54
2022/04/30 03:29:27;;;;;;;6.00;4.80;;;3.00;99.90;;;;;;5003195;28;20514;-55
2022/04/30 03:31:52;;;;;;;7.50;4.97;;;3.00;99.90;;;;;;4992080;28;20034;-52
2022/04/30 03:34:18;;;;;;;9.15;4.93;;;3.00;99.90;;;;;;4975191;28;20023;-55
2022/04/30 03:36:44;;;;;;;10.45;5.60;;;3.00;99.90;;;;;;4992651;28;20031;-56
2022/04/30 03:39:10;;;;;;;8.73;5.68;;;3.00;99.90;;;;;;4974897;28;20041;-56
2022/04/30 03:41:36;;;;;;;9.27;5.57;;;3.00;99.90;;;;;;5007868;28;20406;-53
2022/04/30 03:44:02;;;;;;;9.25;5.55;;;2.90;99.90;;;;;;4993930;28;20161;-52
2022/04/30 03:46:28;;;;;;;10.65;5.55;;;2.90;99.90;;;;;;5012407;28;20037;-55
2022/04/30 03:48:56;;;;;;;9.63;5.55;;;2.90;99.90;;;;;;5011919;28;20026;-54
2022/04/30 03:51:22;;;;;;;7.88;4.95;;;2.90;99.90;;;;;;4998064;28;20109;-55
2022/04/30 03:53:49;;;;;;;9.80;4.80;;;2.90;99.90;;;;;;4996609;28;20014;-57
2022/04/30 03:56:17;;;;;;;6.57;4.65;;;2.90;99.90;;;;;;5011691;28;20022;-53
2022/04/30 03:58:43;;;;;;;8.93;5.00;;;2.90;99.90;;;;;;4994358;28;20429;-54
2022/04/30 04:01:10;;;;;;;8.50;5.22;;;2.90;99.90;;;;;;4999808;28;20745;-52
2022/04/30 04:03:36;;;;;;;16.35;5.88;;;2.90;99.90;;;;;;4993585;28;20034;-53
2022/04/30 04:06:02;;;;;;;7.00;5.50;;;2.80;99.90;;;;;;5008069;28;20539;-56
2022/04/30 04:08:28;;;;;;;8.00;5.25;;;2.90;99.90;;;;;;5011231;28;20026;-51
2022/04/30 04:10:55;;;;;;;8.60;5.47;;;2.90;99.90;;;;;;5001750;28;20033;-55
2022/04/30 04:18:54;;;;;;;11.95;5.72;;;2.90;99.90;;;;;;4995348;28;20036;-56
2022/04/30 04:21:20;;;;;;;10.13;5.80;;;2.90;99.90;;;;;;4991443;28;20076;-54
2022/04/30 04:26:30;;;;;;;7.65;5.80;;;3.00;99.90;;;;;;4991737;28;20045;-55
2022/04/30 04:28:55;;;;;;;12.25;6.07;;;3.00;99.90;;;;;;4992752;28;20027;-54
2022/04/30 04:31:22;;;;;;;11.23;6.25;;;3.10;99.90;;;;;;5003630;28;20410;-52
2022/04/30 04:33:48;;;;;;;8.45;6.72;;;3.10;99.90;;;;;;4989250;28;20058;-55
2022/04/30 04:36:16;;;;;;;10.43;6.13;;;3.10;99.90;;;;;;4989275;28;20030;-55
2022/04/30 04:38:42;;;;;;;9.25;5.78;;;3.20;99.90;;;;;;4991590;28;20039;-55
2022/04/30 04:41:08;;;;;;;8.98;5.45;;;3.20;99.90;;;;;;4999520;28;20085;-55
2022/04/30 04:43:33;;;;;;;12.85;5.72;;;3.20;99.90;;;;;;5010375;28;20501;-53
2022/04/30 04:46:00;;;;;;;10.85;6.00;;;3.30;99.90;;;;;;5009380;28;20208;-57
2022/04/30 04:48:26;;;;;;;8.38;6.05;;;3.30;99.90;;;;;;5010586;28;20026;-51
2022/04/30 04:50:52;;;;;;;7.57;5.45;;;3.30;99.90;;;;;;4984457;28;20038;-53
2022/04/30 04:53:17;;;;;;;8.70;5.45;;;3.40;99.90;;;;;;4990614;28;20050;-54
2022/04/30 04:55:43;;;;;;;11.40;5.50;;;3.40;99.90;;;;;;5002791;28;20018;-56
2022/04/30 04:58:09;;;;;;;9.13;5.60;;;3.40;99.90;;;;;;4993043;28;20551;-54
2022/04/30 05:00:34;;;;;;;7.80;5.55;;;3.50;99.90;;;;;;4987757;28;20019;-54
2022/04/30 05:03:00;;;;;;;7.88;5.05;;;3.50;99.90;;;;;;4990775;28;20030;-54
2022/04/30 05:05:25;;;;;;;10.77;5.78;;;3.60;99.90;;;;;;4994944;28;20029;-53
2022/04/30 05:07:51;;;;;;;7.63;5.20;;;3.70;99.90;;;;;;5010654;28;20034;-54
2022/04/30 05:10:17;;;;;;;9.63;5.88;;;3.70;99.90;;;;;;5007823;28;20117;-54
2022/04/30 05:12:45;;;;;;;7.15;4.68;;;3.80;99.90;;;;;;4990374;28;20435;-55
2022/04/30 05:15:11;;;;;;;8.05;5.53;;;3.80;99.90;;;;;;4991830;28;20734;-57
2022/04/30 05:17:37;;;;;;;8.15;5.20;;;3.90;99.90;;;;;;4973432;28;20122;-52
2022/04/30 05:20:04;;;;;;;8.82;5.40;;;4.00;99.90;;;;;;4992016;28;20461;-55
2022/04/30 05:22:29;;;;;;;7.43;4.10;;;4.10;99.90;;;;;;4970863;28;20093;-51
2022/04/30 05:24:55;;;;;;;7.72;5.13;;;4.20;99.90;;;;;;4996802;28;20042;-53
2022/04/30 05:27:21;;;;;;;10.30;6.10;;;4.20;99.90;;;;;;4991697;28;20028;-52
2022/04/30 05:29:46;;;;;;;10.45;5.68;;;4.30;99.90;;;;;;4990288;28;20022;-57
2022/04/30 05:32:12;;;;;;;9.80;5.28;;;4.40;99.90;;;;;;5006844;28;20092;-53
2022/04/30 05:34:38;;;;;;;10.95;5.53;;;4.40;99.90;;;;;;5010222;28;20085;-55
2022/04/30 05:37:03;;;;;;;8.80;4.82;;;4.50;99.90;;;;;;4997196;28;20057;-54
2022/04/30 05:39:29;;;;;;;7.03;4.65;;;4.50;99.90;;;;;;4978034;28;20069;-54
2022/04/30 05:41:55;;;;;;;7.25;4.68;;;4.60;99.90;;;;;;4987915;28;20030;-51
2022/04/30 05:44:20;;;;;;;8.25;4.38;;;4.60;99.90;;;;;;4990654;28;20041;-53
2022/04/30 05:46:46;;;;;;;7.03;4.78;;;4.70;99.90;;;;;;4990698;28;20061;-53
2022/04/30 05:49:11;;;;;;;6.40;4.35;;;4.80;99.90;;;;;;4990462;28;20105;-54
2022/04/30 05:51:37;;;;;;;6.93;4.50;;;4.80;99.90;;;;;;4989557;28;20038;-50
2022/04/30 05:54:02;;;;;;;5.28;4.25;;;4.90;99.90;;;;;;4990570;28;20030;-54
2022/04/30 05:56:28;;;;;;;4.93;4.18;;;4.90;99.90;;;;;;4990256;28;20029;-53
2022/04/30 05:58:54;;;;;;;6.82;4.50;;;5.00;99.90;;;;;;5004955;28;20502;-52
2022/04/30 06:01:19;;;;;;;8.65;4.78;;;5.10;99.90;;;;;;4989636;28;20030;-56
2022/04/30 06:03:45;;;;;;;10.32;4.80;;;5.10;99.90;;;;;;4989157;28;20114;-52
2022/04/30 06:06:11;;;;;;;7.22;4.85;;;5.30;99.90;;;;;;4989924;28;20348;-55
2022/04/30 06:08:36;;;;;;;8.05;4.50;;;5.30;99.90;;;;;;4972723;28;20035;-52
2022/04/30 06:11:03;;;;;;;6.50;4.43;;;5.40;99.90;;;;;;4990247;28;20031;-50
2022/04/30 06:13:28;;;;;;;7.22;4.10;;;5.50;99.90;;;;;;4989576;28;20088;-52
2022/04/30 06:15:55;;;;;;;5.00;4.22;;;5.60;99.90;;;;;;4967998;28;20387;-55
2022/04/30 06:18:20;;;;;;;7.80;3.95;;;5.70;99.90;;;;;;4970700;28;20045;-50
2022/04/30 06:20:46;;;;;;;8.40;4.40;;;5.80;99.90;;;;;;4970576;28;20031;-53
2022/04/30 06:23:15;;;;;;;5.57;4.20;;;6.00;99.90;;;;;;4970539;28;20033;-54
2022/04/30 06:25:41;;;;;;;5.45;3.88;;;6.10;99.90;;;;;;4992072;28;20048;-54
2022/04/30 06:28:08;;;;;;;8.02;4.38;;;6.30;99.90;;;;;;4991836;28;20064;-52
2022/04/30 06:30:35;;;;;;;5.47;3.85;;;6.40;99.90;;;;;;5009139;28;20467;-53
2022/04/30 06:33:01;;;;;;;9.48;3.85;;;6.50;99.90;;;;;;5009031;28;20065;-52
2022/04/30 06:35:26;;;;;;;4.70;3.80;;;6.70;99.90;;;;;;5008282;28;20069;-52
2022/04/30 06:37:52;;;;;;;8.80;3.55;;;6.80;99.90;;;;;;5010263;28;20057;-54
2022/04/30 06:40:18;;;;;;;7.80;3.90;;;6.90;99.90;;;;;;4991534;28;20032;-53
2022/04/30 06:42:44;;;;;;;7.72;3.85;;;7.00;99.90;;;;;;4993159;28;20026;-52
2022/04/30 06:45:11;;;;;;;5.75;3.78;;;7.10;99.90;;;;;;4993752;28;20618;-52
2022/04/30 06:47:37;;;;;;;4.13;3.72;;;7.30;99.90;;;;;;4993770;28;20041;-51
2022/04/30 06:50:04;;;;;;;7.25;4.35;;;7.50;99.90;;;;;;4993064;28;20037;-52
2022/04/30 06:52:30;;;;;;;5.28;4.20;;;7.70;99.90;;;;;;4975652;28;20030;-52
2022/04/30 06:57:42;;;;;;;5.40;3.00;;;8.10;99.90;;;;;;4993736;28;20048;-53
2022/04/30 07:01:25;;;;;;;4.30;3.35;;;8.30;99.90;;;;;;4994034;28;20102;-52
2022/04/30 07:02:56;;;;;;;6.43;3.10;;;8.50;99.90;;;;;;4977194;28;20026;-53
2022/04/30 07:05:22;;;;;;;6.85;3.63;;;8.80;99.90;;;;;;4975895;28;20030;-56
2022/04/30 07:07:48;;;;;;;6.43;3.33;;;9.00;99.90;;;;;;4993311;28;20379;-51
2022/04/30 07:10:13;;;;;;;5.45;3.47;;;9.20;99.90;;;;;;4993286;28;20432;-51
2022/04/30 07:12:39;;;;;;;4.80;2.88;;;9.50;99.90;;;;;;4992529;28;20034;-51
2022/04/30 07:15:06;;;;;;;6.40;3.13;;;9.80;99.90;;;;;;4993235;28;20039;-53
2022/04/30 07:17:31;;;;;;;4.78;2.72;;;10.00;99.90;;;;;;4993090;28;20505;-53
2022/04/30 07:19:57;;;;;;;3.58;3.13;;;10.20;99.90;;;;;;4992831;28;20034;-54
2022/04/30 07:22:22;;;;;;;6.57;2.70;;;10.50;99.90;;;;;;4992759;28;20026;-56
2022/04/30 07:24:48;;;;;;;6.05;2.60;;;10.80;99.90;;;;;;4975316;28;20034;-54
2022/04/30 07:27:14;;;;;;;3.55;2.40;;;11.00;99.90;;;;;;4992822;28;20026;-48
2022/04/30 07:29:39;;;;;;;4.78;2.50;;;11.30;99.90;;;;;;4993668;28;20118;-51
2022/04/30 07:32:08;;;;;;;4.13;2.35;;;11.40;99.90;;;;;;4992524;28;20494;-56
2022/04/30 07:34:35;;;;;;;5.03;2.80;;;11.40;99.90;;;;;;4992578;28;20018;-52
2022/04/30 07:37:01;;;;;;;4.07;2.58;;;11.30;99.90;;;;;;4992898;28;20026;-55
2022/04/30 07:39:27;;;;;;;3.28;2.70;;;11.60;99.90;;;;;;4992899;28;20474;-54
2022/04/30 07:41:54;;;;;;;5.85;2.58;;;11.90;99.90;;;;;;4992414;28;20085;-49
2022/04/30 07:44:21;;;;;;;4.85;2.25;;;11.80;99.90;;;;;;4975321;28;20109;-53
2022/04/30 07:46:46;;;;;;;3.35;2.50;;;12.00;99.90;;;;;;4993219;28;20680;-51
2022/04/30 07:49:12;;;;;;;3.33;2.40;;;12.20;99.90;;;;;;4991050;28;20031;-52
2022/04/30 07:51:53;;;;;;;4.32;3.10;;;12.20;99.90;;;;;;5000879;28;20038;-52
2022/04/30 07:54:20;;;;;;;4.10;2.85;;;12.30;99.90;;;;;;5011978;28;20114;-52
2022/04/30 07:56:46;;;;;;;2.25;2.00;;;12.50;99.90;;;;;;5000016;28;20026;-50
2022/04/30 07:59:12;;;;;;;2.20;2.00;;;12.60;99.90;;;;;;4976130;28;20027;-55
2022/04/30 08:01:37;;;;;;;4.60;2.45;;;12.70;99.90;;;;;;4978625;28;20044;-53
2022/04/30 08:04:03;;;;;;;4.53;2.17;;;12.50;99.90;;;;;;4972398;28;20038;-52
2022/04/30 08:06:28;;;;;;;3.45;2.58;;;12.70;99.90;;;;;;4988929;28;20034;-53
2022/04/30 08:08:54;;;;;;;2.28;1.95;;;13.00;99.90;;;;;;4992149;28;20030;-51
2022/04/30 08:11:20;;;;;;;4.18;2.55;;;13.40;99.90;;;;;;4999630;28;20034;-54
2022/04/30 08:13:45;;;;;;;3.13;2.00;;;13.70;99.90;;;;;;5010967;28;20682;-53
2022/04/30 08:16:11;;;;;;;7.65;2.00;;;14.00;99.90;;;;;;5010908;28;20026;-54
2022/04/30 08:18:39;;;;;;;2.05;1.92;;;14.00;99.90;;;;;;5011122;28;20100;-54
2022/04/30 08:21:06;;;;;;;6.03;1.73;;;13.90;99.90;;;;;;5010332;28;20030;-52
2022/04/30 08:23:33;;;;;;;3.45;2.40;;;14.00;99.50;;;;;;5011039;28;20160;-55
2022/04/30 08:25:59;;;;;;;4.15;1.77;;;14.10;97.20;;;;;;5008587;28;20026;-55
2022/04/30 08:28:24;;;;;;;1.02;0.98;;;14.00;97.50;;;;;;5004902;28;20505;-52
2022/04/30 08:30:50;;;;;;;3.50;1.70;;;13.90;94.50;;;;;;4991238;28;20022;-55
2022/04/30 08:33:15;;;;;;;3.75;2.17;;;14.20;96.10;;;;;;4991164;28;20510;-54
2022/04/30 08:35:41;;;;;;;2.92;1.48;;;14.30;98.20;;;;;;4989395;28;20030;-49
2022/04/30 08:38:07;;;;;;;3.35;1.67;;;14.60;97.40;;;;;;4991485;28;20483;-54
2022/04/30 08:40:34;;;;;;;1.63;1.45;;;14.70;96.30;;;;;;4991206;28;20026;-50
2022/04/30 08:43:10;;;;;;;3.50;1.70;;;14.90;98.30;;;;;;4991232;28;20027;-52
2022/04/30 08:45:38;;;;;;;6.75;2.05;;;14.80;95.80;;;;;;4992165;28;20022;-54
2022/04/30 08:48:07;;;;;;;2.85;1.30;;;14.50;96.20;;;;;;4990890;28;20038;-52
2022/04/30 08:50:33;;;;;;;1.98;1.55;;;14.60;95.20;;;;;;4991960;28;20073;-55
2022/04/30 08:52:59;;;;;;;2.03;1.45;;;14.80;95.80;;;;;;4990697;28;20058;-51
2022/04/30 08:55:24;;;;;;;4.95;2.28;;;14.60;93.80;;;;;;4995041;28;20026;-53
2022/04/30 08:57:50;;;;;;;3.78;1.60;;;14.20;94.50;;;;;;4991411;28;20037;-53
2022/04/30 09:00:16;;;;;;;2.50;1.73;;;13.90;95.70;;;;;;4995053;28;20171;-51
2022/04/30 09:02:52;;;;;;;3.28;1.75;;;14.00;95.40;;;;;;5006152;28;20564;-56
2022/04/30 09:05:18;;;;;;;;;;;14.00;94.20;;;;;;4991399;28;20022;-50
2022/04/30 09:07:53;;;;;;;2.77;1.40;;;14.10;93.80;;;;;;4973488;28;20274;-53
2022/04/30 09:10:30;;;;;;;2.10;1.70;;;13.70;94.10;;;;;;5008175;28;20030;-52
2022/04/30 09:13:09;;;;;;;4.00;2.03;;;13.90;93.90;;;;;;5009591;28;20104;-51
2022/04/30 09:15:36;;;;;;;2.03;1.58;;;14.10;93.60;;;;;;5010424;28;20045;-52
2022/04/30 09:18:03;;;;;;;1.80;1.60;;;14.10;94.10;;;;;;5008630;28;20054;-51
2022/04/30 09:20:32;;;;;;;3.35;2.13;;;14.20;94.30;;;;;;5006567;28;20497;-54
2022/04/30 09:22:58;;;;;;;2.70;2.03;;;14.50;93.30;;;;;;5006048;28;20041;-55
2022/04/30 09:25:23;;;;;;;4.18;2.38;;;14.30;94.10;;;;;;4990745;28;20039;-55
2022/04/30 09:27:54;;;;;;;2.80;2.50;;;14.60;96.20;;;;;;4990416;28;20033;-51
2022/04/30 09:30:26;;;;;;;3.78;2.28;;;15.00;94.20;;;;;;4969938;28;20069;-53
2022/04/30 09:33:06;;;;;;;2.83;2.40;;;15.30;93.90;;;;;;4971315;28;20027;-52
2022/04/30 09:38:25;;;;;;;3.85;2.58;;;16.00;93.50;;;;;;4959486;28;20054;-55
2022/04/30 09:41:00;;;;;;;3.60;2.67;;;15.80;92.80;;;;;;4990408;28;20114;-51
2022/04/30 09:43:30;;;;;;;3.83;2.42;;;15.80;93.20;;;;;;4995097;28;20030;-53
2022/04/30 09:46:00;;;;;;;2.47;2.13;;;15.80;91.40;;;;;;4990013;28;20033;-52
2022/04/30 09:53:57;;;;;;;2.97;2.15;;;15.10;90.40;;;;;;4993718;28;20065;-52
2022/04/30 09:56:35;;;;;;;4.68;3.08;;;15.00;90.50;;;;;;4992227;28;20022;-56
2022/04/30 09:59:12;;;;;;;4.90;2.10;;;15.00;88.90;;;;;;4982772;28;20113;-54
2022/04/30 10:01:40;;;;;;;3.80;1.83;;;15.20;90.30;;;;;;4986440;28;20034;-51
2022/04/30 10:04:09;;;;;;;4.43;2.83;;;15.30;84.70;;;;;;4989527;28;20433;-51
2022/04/30 10:06:37;;;;;;;5.90;2.33;;;15.50;87.40;;;;;;4972393;28;20027;-50
2022/04/30 10:09:24;;;;;;;3.67;2.10;;;15.20;90.20;;;;;;4989821;28;20030;-52
2022/04/30 10:12:19;;;;;;;2.30;1.88;;;15.40;85.20;;;;;;4989965;28;20057;-50
2022/04/30 10:14:54;;;;;;;2.13;1.80;;;15.30;85.60;;;;;;4994235;28;20157;-50
2022/04/30 10:17:23;;;;;;;2.92;2.00;;;15.50;85.20;;;;;;4992872;28;20049;-55
2022/04/30 10:20:04;;;;;;;6.38;3.17;;;15.50;84.80;;;;;;4994154;28;20034;-54
2022/04/30 10:22:30;;;;;;;4.82;2.97;;;15.60;86.90;;;;;;4993864;28;20026;-54
2022/04/30 10:24:57;;;;;;;3.58;3.00;;;15.10;90.90;;;;;;4992535;28;20084;-51
2022/04/30 10:27:24;;;;;;;3.10;2.67;;;14.90;90.40;;;;;;4993284;28;20119;-53
2022/04/30 10:29:57;;;;;;;4.35;2.72;;;15.00;90.50;;;;;;4993643;28;20034;-53
2022/04/30 10:32:34;;;;;;;4.53;3.30;;;15.30;91.90;;;;;;4975785;28;20041;-49
2022/04/30 10:35:01;;;;;;;4.70;2.78;;;15.50;89.10;;;;;;4986909;28;20034;-54
2022/04/30 10:37:33;;;;;;;5.20;2.83;;;15.30;90.30;;;;;;4987794;28;20020;-55
2022/04/30 10:40:00;;;;;;;4.57;3.22;;;15.00;90.80;;;;;;4982654;28;20031;-52
2022/04/30 10:42:39;;;;;;;3.78;2.45;;;14.80;91.20;;;;;;4993273;28;20036;-55
2022/04/30 10:45:07;;;;;;;4.18;3.05;;;14.90;92.60;;;;;;4974382;28;20483;-55
2022/04/30 10:47:32;;;;;;;4.68;2.40;;;15.20;91.00;;;;;;4974361;28;20463;-55
2022/04/30 10:49:58;;;;;;;3.40;2.03;;;15.20;87.60;;;;;;4974171;28;20026;-56
2022/04/30 10:52:27;;;;;;;3.35;2.33;;;15.50;88.70;;;;;;4974157;28;20099;-51
2022/04/30 10:54:54;;;;;;;3.08;2.22;;;15.80;88.80;;;;;;4976038;28;20411;-51
2022/04/30 10:57:21;;;;;;;3.58;2.63;;;16.20;90.30;;;;;;4992241;28;20023;-49
2022/04/30 11:00:01;;;;;;;2.45;2.20;;;16.30;86.80;;;;;;4993423;28;20021;-52
2022/04/30 11:02:32;;;;;;;4.43;2.58;;;16.30;85.20;;;;;;5009029;28;20033;-54
2022/04/30 11:04:58;;;;;;;4.68;2.65;;;16.00;86.00;;;;;;4997765;28;20036;-54
2022/04/30 11:07:26;;;;;;;3.75;2.47;;;16.00;88.00;;;;;;4993390;28;20100;-56
2022/04/30 11:09:52;;;;;;;2.85;2.22;;;16.00;87.20;;;;;;4991949;28;20064;-52
2022/04/30 11:12:17;;;;;;;4.45;2.22;;;15.90;85.40;;;;;;4978795;28;20462;-53
2022/04/30 11:14:47;;;;;;;4.68;2.58;;;16.00;90.30;;;;;;4993063;28;20529;-54
2022/04/30 11:17:12;;;;;;;2.25;1.85;;;16.10;84.30;;;;;;4975638;28;20030;-53
2022/04/30 11:19:42;;;;;;;4.68;2.35;;;16.30;87.20;;;;;;4992873;28;20021;-56
2022/04/30 11:22:09;;;;;;;1.83;1.55;;;16.30;82.70;;;;;;4975182;28;20030;-54
2022/04/30 11:24:37;;;;;;;3.85;2.13;;;16.40;83.10;;;;;;4992358;28;20549;-53
2022/04/30 11:27:12;;;;;;;3.38;2.25;;;16.30;81.30;;;;;;4992862;28;20037;-54
2022/04/30 11:29:48;;;;;;;3.38;2.30;;;16.00;83.70;;;;;;4993088;28;20097;-54
2022/04/30 11:32:21;;;;;;;;;;;15.90;83.60;;;;;;4993456;28;20054;-56
2022/04/30 11:34:47;;;;;;;2.65;2.00;;;15.90;84.40;;;;;;4993047;28;19910;-52
2022/04/30 11:37:13;;;;;;;3.22;2.25;;;16.20;83.00;;;;;;4992600;28;20494;-52
2022/04/30 11:39:38;;;;;;;4.15;1.80;;;16.00;81.60;;;;;;4992915;28;20018;-55
2022/04/30 11:42:05;;;;;;;1.85;1.70;;;15.90;81.40;;;;;;4992374;28;20034;-53
2022/04/30 11:44:30;;;;;;;2.00;1.73;;;15.80;82.80;;;;;;4992450;28;20034;-54
2022/04/30 11:46:56;;;;;;;5.03;2.35;;;15.90;84.60;;;;;;4992211;28;20379;-56
2022/04/30 11:49:24;;;;;;;3.25;1.80;;;15.90;82.40;;;;;;4992097;28;20053;-51
2022/04/30 11:51:51;;;;;;;3.38;1.88;;;15.60;79.40;;;;;;4992151;28;20026;-56
2022/04/30 11:54:19;;;;;;;2.85;2.08;;;15.70;83.70;;;;;;4992130;28;20076;-56
2022/04/30 11:56:46;;;;;;;3.08;2.05;;;15.60;79.90;;;;;;4992371;28;20022;-56
2022/04/30 11:59:12;;;;;;;3.53;2.00;;;15.10;80.20;;;;;;4996477;28;20029;-54
2022/04/30 12:01:39;;;;;;;2.80;1.88;;;14.90;80.60;;;;;;4992384;28;20044;-54
2022/04/30 12:04:11;;;;;;;3.70;1.63;;;14.80;83.10;;;;;;4992153;28;20033;-55
2022/04/30 12:06:38;;;;;;;1.70;1.35;;;14.90;80.30;;;;;;4975747;28;20027;-56
2022/04/30 12:09:17;;;;;;;3.97;1.52;;;14.90;82.70;;;;;;4992270;28;20030;-56
2022/04/30 12:11:44;;;;;;;2.70;1.63;;;14.80;82.00;;;;;;4994167;28;20034;-55
2022/04/30 12:14:11;;;;;;;2.15;1.70;;;14.80;82.50;;;;;;5011604;28;20030;-53
2022/04/30 12:16:42;;;;;;;4.05;1.60;;;14.90;83.40;;;;;;4986582;28;20105;-51
2022/04/30 12:25:15;;;;;;;3.38;1.33;;;15.60;80.90;;;;;;4992149;28;20405;-54
2022/04/30 12:27:51;;;;;;;2.45;1.60;;;15.60;79.70;;;;;;4991437;28;20038;-51
2022/04/30 12:30:17;;;;;;;;;;;15.50;80.30;;;;;;4991625;28;20117;-53
2022/04/30 12:32:51;;;;;;;5.10;1.80;;;15.70;81.80;;;;;;4995295;28;20059;-55
2022/04/30 12:35:38;;;;;;;3.28;1.63;;;15.60;79.20;;;;;;5008722;28;20076;-54
2022/04/30 12:38:08;;;;;;;2.08;1.73;;;15.60;80.80;;;;;;5010516;28;20026;-53
2022/04/30 12:40:42;;;;;;;2.30;1.50;;;15.60;79.20;;;;;;4991357;28;20548;-55
2022/04/30 12:43:07;;;;;;;2.95;1.75;;;15.50;80.80;;;;;;4989913;28;20030;-51
2022/04/30 12:45:33;;;;;;;2.33;1.52;;;15.70;82.60;;;;;;4986828;28;20026;-55
2022/04/30 12:48:00;;;;;;;3.85;2.13;;;15.90;80.40;;;;;;5010583;28;20057;-57
2022/04/30 12:50:27;;;;;;;2.72;1.80;;;15.80;78.80;;;;;;5009292;28;20053;-52
2022/04/30 12:52:53;;;;;;;1.90;1.73;;;15.80;78.30;;;;;;4998208;28;20041;-56
2022/04/30 12:55:19;;;;;;;1.60;1.50;;;15.70;77.90;;;;;;4973004;28;20019;-51
2022/04/30 12:57:45;;;;;;;2.38;1.90;;;15.70;77.10;;;;;;4992605;28;20093;-53
2022/04/30 13:00:12;;;;;;;2.20;1.65;;;15.70;75.90;;;;;;4995357;28;20565;-56
2022/04/30 13:02:39;;;;;;;2.70;1.60;;;15.80;79.20;;;;;;4990032;28;20034;-54
2022/04/30 13:05:12;;;;;;;4.60;1.38;;;16.00;78.70;;;;;;4996804;28;20448;-49
2022/04/30 13:07:39;;;;;;;4.03;1.77;;;16.30;77.10;;;;;;5010785;28;20406;-54
2022/04/30 13:15:35;;;;;;;1.40;1.30;;;16.10;74.80;;;;;;5006928;28;20053;-52
2022/04/30 13:18:02;;;;;;;1.73;1.63;;;15.80;75.60;;;;;;4957296;28;20482;-56
2022/04/30 13:20:28;;;;;;;2.17;1.70;;;15.80;77.50;;;;;;4991606;28;20453;-50
2022/04/30 13:22:56;;;;;;;1.70;1.35;;;15.90;75.60;;;;;;4990453;28;20558;-53
2022/04/30 13:25:23;;;;;;;1.92;1.67;;;15.90;79.00;;;;;;4989888;28;20050;-50
2022/04/30 13:27:49;;;;;;;3.17;1.50;;;15.80;78.90;;;;;;4972971;28;20057;-54
2022/04/30 13:30:15;;;;;;;2.55;1.80;;;15.80;81.40;;;;;;4989076;28;20026;-53
2022/04/30 13:32:41;;;;;;;6.03;3.63;;;15.60;78.30;;;;;;4990293;28;20056;-55
2022/04/30 13:35:08;;;;;;;6.18;3.70;;;15.50;80.80;;;;;;4992416;28;20141;-56
2022/04/30 13:37:40;;;;;;;3.08;2.58;;;15.50;80.30;;;;;;4989957;28;20037;-57
2022/04/30 13:40:09;;;;;;;2.22;2.03;;;15.30;79.60;;;;;;4973743;28;20029;-55
2022/04/30 13:42:35;;;;;;;1.98;1.75;;;15.20;79.00;;;;;;4990171;28;20431;-55
2022/04/30 13:45:01;;;;;;;3.28;1.77;;;15.20;80.40;;;;;;4999489;28;20097;-52
2022/04/30 13:47:28;;;;;;;2.88;1.95;;;15.30;80.90;;;;;;4987498;28;20064;-51
2022/04/30 13:49:54;;;;;;;2.70;1.88;;;15.30;79.70;;;;;;5010070;28;20080;-52
2022/04/30 13:52:20;;;;;;;3.80;2.05;;;15.40;80.80;;;;;;5002102;28;20054;-54
2022/04/30 13:54:46;;;;;;;3.00;1.90;;;15.40;79.50;;;;;;4993069;28;20065;-56
2022/04/30 13:57:12;;;;;;;3.25;1.88;;;15.70;80.70;;;;;;5008044;28;20501;-52
2022/04/30 13:59:38;;;;;;;4.10;1.92;;;15.70;80.30;;;;;;4974730;28;20030;-52
2022/04/30 14:02:04;;;;;;;2.35;2.15;;;15.90;79.30;;;;;;4988843;28;20027;-55
2022/04/30 14:04:33;;;;;;;2.30;2.10;;;15.90;78.90;;;;;;4993719;28;20032;-56
2022/04/30 14:07:00;;;;;;;2.67;1.63;;;15.90;78.90;;;;;;4996637;28;20133;-55
2022/04/30 14:09:26;;;;;;;2.10;1.60;;;16.00;77.90;;;;;;4972404;28;20030;-52
2022/04/30 14:11:51;;;;;;;1.73;1.58;;;16.00;78.80;;;;;;4989714;28;20589;-54